Reocin, Spain
Current Conditions -  °F | °C
As of 11:00 PM on Sunday 23 Nov 2014 (Local Time) from LEXJ Reporting Station
Overcast Overcast  
Wind Chill: 61°   Ceiling: 2800
Heat Index: 61°   Visibility: 6mi
Dew Point: 55°   Wind: 6mph
Humidity: 82%   Direction: 240°WSW
Pressure: 30"   Gusts: NA
Location:  43.34°N, 4.09°W
Report Text: LEXJ 232200Z 24005KT 9000 FEW010 BKN028 OVC050 16/13 Q1016
Loading
Personal Weather Stations






























Interactive Weather Map New forecast layout! Learn more

10-Day Weather Forecast

Advertisements
Track Severe Weather on mobile